Time;durP1;ratioP1;P1;durP2;ratioP2;P2;SDS_P1;SDS_P2;PMS_P1;PMS_P2;Temp;Humidity;BMP_temperature;BMP_pressure;BME280_temperature;BME280_humidity;BME280_pressure;Samples;Min_cycle;Max_cycle;Signal;HPM_P1;HPM_P2
2022/01/27 00:00:57;;;;;;;67.85;36.00;;;;;;;;;;5075700;28;20046;-64
2022/01/27 00:03:28;;;;;;;74.38;36.65;;;;;;;;;;5075508;28;20103;-65
2022/01/27 00:06:00;;;;;;;79.32;37.30;;;;;;;;;;5075700;28;20432;-64
2022/01/27 00:08:37;;;;;;;71.70;37.72;;;;;;;;;;5074605;28;20452;-63
2022/01/27 00:11:09;;;;;;;87.38;41.95;;;;;;;;;;5073420;28;20031;-62
2022/01/27 00:13:44;;;;;;;88.53;42.75;;;;;;;;;;5073358;28;20475;-64
2022/01/27 00:16:14;;;;;;;97.95;44.60;;;;;;;;;;5073876;28;20511;-63
2022/01/27 00:18:41;;;;;;;84.70;41.03;;;;;;;;;;5073789;28;20059;-63
2022/01/27 00:21:07;;;;;;;87.93;42.55;;;;;;;;;;5073790;28;20016;-61
2022/01/27 00:23:33;;;;;;;77.63;37.22;;;;;;;;;;5074055;28;20066;-62
2022/01/27 00:25:59;;;;;;;88.28;38.45;;;;;;;;;;5074733;28;20446;-63
2022/01/27 00:28:25;;;;;;;84.20;36.22;;;;;;;;;;5075019;28;20039;-62
2022/01/27 00:30:52;;;;;;;74.72;35.05;;;;;;;;;;5075232;28;20032;-65
2022/01/27 00:33:18;;;;;;;72.95;35.28;;;;;;;;;;5074916;28;20021;-62
2022/01/27 00:35:44;;;;;;;76.63;35.40;;;;;;;;;;5075107;28;20025;-62
2022/01/27 00:38:10;;;;;;;70.65;35.17;;;;;;;;;;5074539;28;20017;-60
2022/01/27 00:40:36;;;;;;;61.88;31.27;;;;;;;;;;5074954;28;20030;-63
2022/01/27 00:43:02;;;;;;;59.72;31.17;;;;;;;;;;5074732;28;20022;-64
2022/01/27 00:45:30;;;;;;;63.08;31.33;;;;;;;;;;5074648;28;20024;-63
2022/01/27 00:48:00;;;;;;;62.88;30.42;;;;;;;;;;5074904;28;20038;-65
2022/01/27 00:50:27;;;;;;;60.83;30.83;;;;;;;;;;5074941;28;20024;-63
2022/01/27 00:52:56;;;;;;;57.50;30.05;;;;;;;;;;5074815;28;20103;-61
2022/01/27 00:55:24;;;;;;;65.15;32.20;;;;;;;;;;5074750;28;20031;-61
2022/01/27 01:00:21;;;;;;;64.75;31.75;;;;;;;;;;5073862;28;20033;-61
2022/01/27 01:02:57;;;;;;;;;;;;;;;;;;5075131;28;20017;-62
2022/01/27 01:08:12;;;;;;;66.63;30.05;;;;;;;;;;5074268;28;20454;-61
2022/01/27 01:11:13;;;;;;;60.65;28.73;;;;;;;;;;5074217;28;20066;-62
2022/01/27 01:16:21;;;;;;;55.00;27.88;;;;;;;;;;5074132;28;20048;-62
2022/01/27 01:18:58;;;;;;;57.83;27.17;;;;;;;;;;5074232;28;20020;-62
2022/01/27 01:34:54;;;;;;;53.78;25.83;;;;;;;;;;5073505;28;20028;-62
2022/01/27 01:37:20;;;;;;;51.28;26.75;;;;;;;;;;5073761;28;20507;-64
2022/01/27 01:39:46;;;;;;;53.58;25.15;;;;;;;;;;5073895;28;20077;-63
2022/01/27 01:42:13;;;;;;;53.97;25.35;;;;;;;;;;5073961;28;20024;-63
2022/01/27 01:44:39;;;;;;;56.38;26.02;;;;;;;;;;5073721;28;20021;-61
2022/01/27 01:47:06;;;;;;;52.72;24.50;;;;;;;;;;5073721;28;20464;-63
2022/01/27 01:49:32;;;;;;;49.25;24.48;;;;;;;;;;5073410;28;20033;-61
2022/01/27 01:52:01;;;;;;;47.55;25.30;;;;;;;;;;5073867;28;20390;-64
2022/01/27 01:54:27;;;;;;;48.10;25.13;;;;;;;;;;5073890;28;20445;-61
2022/01/27 01:56:53;;;;;;;53.67;25.50;;;;;;;;;;5073239;28;20023;-61
2022/01/27 01:59:19;;;;;;;53.78;25.80;;;;;;;;;;5073987;28;20469;-61
2022/01/27 02:01:46;;;;;;;48.15;25.48;;;;;;;;;;5073735;28;20129;-60
2022/01/27 02:04:12;;;;;;;54.83;26.25;;;;;;;;;;5073412;28;20028;-61
2022/01/27 02:07:02;;;;;;;48.83;25.15;;;;;;;;;;5073353;28;20024;-61
2022/01/27 02:20:12;;;;;;;62.00;29.02;;;;;;;;;;5073422;28;20552;-62
2022/01/27 02:22:39;;;;;;;56.05;26.63;;;;;;;;;;5073328;28;20109;-60
2022/01/27 02:25:06;;;;;;;59.58;27.73;;;;;;;;;;5072912;28;20017;-63
2022/01/27 02:27:34;;;;;;;65.97;29.52;;;;;;;;;;5073504;28;20111;-63
2022/01/27 02:30:00;;;;;;;61.55;29.02;;;;;;;;;;5073208;28;20028;-60
2022/01/27 02:32:26;;;;;;;60.35;30.17;;;;;;;;;;5073475;28;20443;-63
2022/01/27 02:34:52;;;;;;;72.28;32.03;;;;;;;;;;5073169;28;20405;-62
2022/01/27 02:37:19;;;;;;;103.18;41.08;;;;;;;;;;5073452;28;20416;-63
2022/01/27 02:39:45;;;;;;;69.80;32.53;;;;;;;;;;5073207;28;20036;-65
2022/01/27 02:42:31;;;;;;;67.70;32.88;;;;;;;;;;5073241;28;20017;-62
2022/01/27 02:45:07;;;;;;;55.35;27.98;;;;;;;;;;5065899;28;20029;-62
2022/01/27 02:47:33;;;;;;;65.50;30.63;;;;;;;;;;5073212;28;20024;-61
2022/01/27 02:49:59;;;;;;;66.70;30.15;;;;;;;;;;5073262;28;20028;-60
2022/01/27 02:52:25;;;;;;;63.97;29.80;;;;;;;;;;5073391;28;20505;-64
2022/01/27 02:54:52;;;;;;;67.72;29.52;;;;;;;;;;5073518;28;20101;-62
2022/01/27 02:57:19;;;;;;;59.72;28.05;;;;;;;;;;5072684;28;20008;-62
2022/01/27 02:59:46;;;;;;;58.92;28.60;;;;;;;;;;5072661;28;20052;-62
2022/01/27 03:02:12;;;;;;;60.60;26.17;;;;;;;;;;5072968;28;20017;-60
2022/01/27 03:04:38;;;;;;;52.63;25.92;;;;;;;;;;5073157;28;20062;-62
2022/01/27 03:07:06;;;;;;;55.00;27.50;;;;;;;;;;5072500;28;20039;-59
2022/01/27 03:09:33;;;;;;;88.50;35.33;;;;;;;;;;5073290;28;20063;-61
2022/01/27 03:12:07;;;;;;;62.92;28.35;;;;;;;;;;5073259;28;20024;-62
2022/01/27 03:14:35;;;;;;;60.60;30.30;;;;;;;;;;5072815;28;20112;-63
2022/01/27 03:17:03;;;;;;;75.50;32.30;;;;;;;;;;5072703;28;20008;-62
2022/01/27 03:19:30;;;;;;;54.83;25.77;;;;;;;;;;5072280;28;20503;-59
2022/01/27 03:21:56;;;;;;;57.72;27.67;;;;;;;;;;5073114;28;20357;-62
2022/01/27 03:24:24;;;;;;;58.10;29.25;;;;;;;;;;5076462;28;20059;-62
2022/01/27 03:26:50;;;;;;;65.70;28.60;;;;;;;;;;5075779;28;20020;-61
2022/01/27 03:29:18;;;;;;;71.03;32.03;;;;;;;;;;5076343;28;20024;-62
2022/01/27 03:31:44;;;;;;;67.95;32.42;;;;;;;;;;5076587;28;20008;-62
2022/01/27 03:34:11;;;;;;;100.88;44.60;;;;;;;;;;5075953;28;20016;-62
2022/01/27 03:36:37;;;;;;;97.10;45.08;;;;;;;;;;5075960;28;20020;-61
2022/01/27 03:39:04;;;;;;;103.10;41.97;;;;;;;;;;5076196;28;20032;-63
2022/01/27 03:41:33;;;;;;;102.82;45.60;;;;;;;;;;5075561;28;20427;-63
2022/01/27 03:43:59;;;;;;;112.93;47.22;;;;;;;;;;5076100;28;20024;-63
2022/01/27 03:46:25;;;;;;;89.82;40.72;;;;;;;;;;5075812;28;20017;-62
2022/01/27 03:48:51;;;;;;;124.25;52.25;;;;;;;;;;5075448;28;20036;-62
2022/01/27 03:51:18;;;;;;;127.85;53.60;;;;;;;;;;5075718;28;20431;-60
2022/01/27 03:53:44;;;;;;;109.85;46.45;;;;;;;;;;5075664;28;20042;-62
2022/01/27 03:56:10;;;;;;;119.47;48.60;;;;;;;;;;5075656;28;20067;-61
2022/01/27 03:58:36;;;;;;;86.78;38.90;;;;;;;;;;5075461;28;20045;-61
2022/01/27 04:01:03;;;;;;;95.55;40.22;;;;;;;;;;5075557;28;20025;-62
2022/01/27 04:03:32;;;;;;;80.78;37.47;;;;;;;;;;5075599;28;20020;-60
2022/01/27 04:06:05;;;;;;;80.50;36.08;;;;;;;;;;5075701;28;20016;-65
2022/01/27 04:08:32;;;;;;;73.97;34.13;;;;;;;;;;5075557;28;20024;-61
2022/01/27 04:10:58;;;;;;;74.43;33.58;;;;;;;;;;5075961;28;20504;-62
2022/01/27 04:13:24;;;;;;;63.60;32.08;;;;;;;;;;5075581;28;20031;-64
2022/01/27 04:15:50;;;;;;;98.28;43.40;;;;;;;;;;5075160;28;20038;-62
2022/01/27 04:18:16;;;;;;;85.40;38.83;;;;;;;;;;5075144;28;20016;-62
2022/01/27 04:20:42;;;;;;;77.93;37.08;;;;;;;;;;5075096;28;20128;-63
2022/01/27 04:23:09;;;;;;;67.82;35.85;;;;;;;;;;5075061;28;20032;-61
2022/01/27 04:25:38;;;;;;;90.47;40.20;;;;;;;;;;5075054;28;20008;-62
2022/01/27 04:28:07;;;;;;;92.57;44.85;;;;;;;;;;5075305;28;20017;-63
2022/01/27 04:30:34;;;;;;;91.03;44.03;;;;;;;;;;5074713;28;20424;-63
2022/01/27 04:33:03;;;;;;;84.60;40.22;;;;;;;;;;5074984;28;20025;-61
2022/01/27 04:35:32;;;;;;;83.85;42.80;;;;;;;;;;5074920;28;20449;-62
2022/01/27 04:38:13;;;;;;;103.07;45.30;;;;;;;;;;5075122;28;20024;-61
2022/01/27 04:40:51;;;;;;;97.55;44.47;;;;;;;;;;5074954;28;20020;-64
2022/01/27 04:46:01;;;;;;;146.07;56.42;;;;;;;;;;5074950;28;20028;-62
2022/01/27 04:48:34;;;;;;;109.35;45.85;;;;;;;;;;5075501;28;20032;-63
2022/01/27 04:51:06;;;;;;;110.22;46.88;;;;;;;;;;5074297;28;20174;-63
2022/01/27 04:53:37;;;;;;;87.60;38.03;;;;;;;;;;5074801;28;20103;-61
2022/01/27 04:56:03;;;;;;;80.43;35.22;;;;;;;;;;5074701;28;20035;-63
2022/01/27 04:58:32;;;;;;;74.32;34.97;;;;;;;;;;5074474;28;20040;-63
2022/01/27 05:01:01;;;;;;;60.83;30.10;;;;;;;;;;5074648;28;20066;-62
2022/01/27 05:06:12;;;;;;;71.57;32.03;;;;;;;;;;5073971;28;20064;-61
2022/01/27 05:08:41;;;;;;;65.00;30.92;;;;;;;;;;5073962;28;20028;-61
2022/01/27 05:13:41;;;;;;;60.42;29.45;;;;;;;;;;5074375;28;20342;-66
2022/01/27 05:16:08;;;;;;;74.80;34.05;;;;;;;;;;5072992;28;20070;-62
2022/01/27 05:18:35;;;;;;;60.30;30.33;;;;;;;;;;5074196;28;20020;-62
2022/01/27 05:21:01;;;;;;;73.50;34.47;;;;;;;;;;5073841;28;20021;-63
2022/01/27 05:23:27;;;;;;;60.22;30.50;;;;;;;;;;5073746;28;20012;-63
2022/01/27 05:25:53;;;;;;;66.30;31.13;;;;;;;;;;5073539;28;20017;-63
2022/01/27 05:28:19;;;;;;;72.88;33.97;;;;;;;;;;5073749;28;20023;-62
2022/01/27 05:30:45;;;;;;;61.47;29.77;;;;;;;;;;5072893;28;20039;-63
2022/01/27 05:33:12;;;;;;;64.95;29.63;;;;;;;;;;5072230;28;20016;-63
2022/01/27 05:35:38;;;;;;;75.97;35.00;;;;;;;;;;5071816;28;20515;-64
2022/01/27 05:38:04;;;;;;;82.18;40.03;;;;;;;;;;5071835;28;20054;-62
2022/01/27 05:40:30;;;;;;;82.85;40.55;;;;;;;;;;5072687;28;20111;-63
2022/01/27 05:42:57;;;;;;;87.72;39.20;;;;;;;;;;5074053;28;20108;-63
2022/01/27 05:45:23;;;;;;;76.70;36.45;;;;;;;;;;5073334;28;20031;-62
2022/01/27 05:47:49;;;;;;;60.53;32.42;;;;;;;;;;5073723;28;20020;-65
2022/01/27 05:50:15;;;;;;;64.93;32.03;;;;;;;;;;5073103;28;20081;-62
2022/01/27 05:52:41;;;;;;;73.15;33.53;;;;;;;;;;5073911;28;20020;-63
2022/01/27 05:55:08;;;;;;;74.10;35.50;;;;;;;;;;5073311;28;20052;-62
2022/01/27 05:57:34;;;;;;;74.90;35.60;;;;;;;;;;5073985;28;20120;-63
2022/01/27 06:00:00;;;;;;;73.60;35.08;;;;;;;;;;5073402;28;20024;-64
2022/01/27 06:02:26;;;;;;;62.80;30.50;;;;;;;;;;5073162;28;20020;-60
2022/01/27 06:04:52;;;;;;;67.45;30.45;;;;;;;;;;5073338;28;20025;-61
2022/01/27 06:07:19;;;;;;;61.20;30.60;;;;;;;;;;5073062;28;20021;-64
2022/01/27 06:09:45;;;;;;;69.15;32.35;;;;;;;;;;5072900;28;20027;-62
2022/01/27 06:12:11;;;;;;;63.65;31.80;;;;;;;;;;5072147;28;20021;-62
2022/01/27 06:14:37;;;;;;;66.18;32.63;;;;;;;;;;5073347;28;20091;-63
2022/01/27 06:17:04;;;;;;;75.45;33.80;;;;;;;;;;5072401;28;20069;-63
2022/01/27 06:19:30;;;;;;;74.90;35.35;;;;;;;;;;5073585;28;20078;-62
2022/01/27 06:21:56;;;;;;;68.20;34.30;;;;;;;;;;5073278;28;20464;-64
2022/01/27 06:24:22;;;;;;;69.72;34.45;;;;;;;;;;5073279;28;20032;-62
2022/01/27 06:26:48;;;;;;;65.25;31.77;;;;;;;;;;5073599;28;20025;-62
2022/01/27 06:29:14;;;;;;;70.15;34.45;;;;;;;;;;5072952;28;20027;-61
2022/01/27 06:31:41;;;;;;;65.72;31.98;;;;;;;;;;5073267;28;20364;-63
2022/01/27 06:34:08;;;;;;;58.00;29.40;;;;;;;;;;5073127;28;20032;-61
2022/01/27 06:36:34;;;;;;;57.47;29.30;;;;;;;;;;5073519;28;20458;-61
2022/01/27 06:39:00;;;;;;;58.45;28.80;;;;;;;;;;5073067;28;20400;-61
2022/01/27 06:41:26;;;;;;;63.90;28.58;;;;;;;;;;5073038;28;20372;-63
2022/01/27 06:43:54;;;;;;;51.88;27.02;;;;;;;;;;5072756;28;20403;-65
2022/01/27 06:46:20;;;;;;;55.33;27.00;;;;;;;;;;5073111;28;20043;-63
2022/01/27 06:48:46;;;;;;;57.60;26.70;;;;;;;;;;5073065;28;20027;-62
2022/01/27 06:51:12;;;;;;;55.42;28.08;;;;;;;;;;5072752;28;20020;-63
2022/01/27 06:53:38;;;;;;;65.72;29.70;;;;;;;;;;5073001;28;20017;-62
2022/01/27 06:56:05;;;;;;;64.80;30.13;;;;;;;;;;5073264;28;20024;-61
2022/01/27 06:58:34;;;;;;;261.33;127.28;;;;;;;;;;5075598;28;20055;-63
2022/01/27 07:01:00;;;;;;;402.08;205.35;;;;;;;;;;5076708;28;20024;-62
2022/01/27 07:03:26;;;;;;;359.23;181.68;;;;;;;;;;5076174;28;20020;-61
2022/01/27 07:05:52;;;;;;;320.05;157.45;;;;;;;;;;5076060;28;20368;-61
2022/01/27 07:08:18;;;;;;;282.95;145.98;;;;;;;;;;5076350;28;20067;-60
2022/01/27 07:10:44;;;;;;;246.27;126.38;;;;;;;;;;5076139;28;20030;-61
2022/01/27 07:13:11;;;;;;;252.18;125.40;;;;;;;;;;5076331;28;20015;-63
2022/01/27 07:15:37;;;;;;;250.75;130.68;;;;;;;;;;5076310;28;20019;-66
2022/01/27 07:18:04;;;;;;;278.42;155.05;;;;;;;;;;5075967;28;20095;-60
2022/01/27 07:20:30;;;;;;;284.27;153.80;;;;;;;;;;5075858;28;20023;-64
2022/01/27 07:22:56;;;;;;;254.60;138.77;;;;;;;;;;5076456;28;20105;-62
2022/01/27 07:25:22;;;;;;;208.07;109.65;;;;;;;;;;5075898;28;20063;-63
2022/01/27 07:27:48;;;;;;;186.35;102.57;;;;;;;;;;5075829;28;20024;-62
2022/01/27 07:30:14;;;;;;;176.00;91.43;;;;;;;;;;5075945;28;20094;-62
2022/01/27 07:32:40;;;;;;;187.68;93.88;;;;;;;;;;5074432;28;20357;-63
2022/01/27 07:35:07;;;;;;;188.00;91.57;;;;;;;;;;5074503;28;20429;-63
2022/01/27 07:37:33;;;;;;;174.88;90.40;;;;;;;;;;5074707;28;20034;-61
2022/01/27 07:39:59;;;;;;;174.02;86.43;;;;;;;;;;5075246;28;20365;-64
2022/01/27 07:42:25;;;;;;;184.52;91.30;;;;;;;;;;5075485;28;20360;-61
2022/01/27 07:44:51;;;;;;;195.63;94.75;;;;;;;;;;5075440;28;20200;-62
2022/01/27 07:47:17;;;;;;;163.43;77.93;;;;;;;;;;5075489;28;20019;-63
2022/01/27 07:49:44;;;;;;;141.23;65.47;;;;;;;;;;5075729;28;20100;-61
2022/01/27 07:52:10;;;;;;;154.68;72.22;;;;;;;;;;5074817;28;20017;-60
2022/01/27 07:54:36;;;;;;;134.55;60.80;;;;;;;;;;5075535;28;20013;-59
2022/01/27 07:57:03;;;;;;;83.75;40.33;;;;;;;;;;5074646;28;20368;-61
2022/01/27 07:59:29;;;;;;;80.28;38.20;;;;;;;;;;5074712;28;20491;-65
2022/01/27 08:01:55;;;;;;;294.02;121.40;;;;;;;;;;5073849;28;20019;-62
2022/01/27 08:04:21;;;;;;;94.57;45.35;;;;;;;;;;5075163;28;20138;-62
2022/01/27 08:06:47;;;;;;;83.45;42.00;;;;;;;;;;5074809;28;20461;-62
2022/01/27 08:09:14;;;;;;;117.50;51.38;;;;;;;;;;5072179;28;20029;-62
2022/01/27 08:11:40;;;;;;;89.45;42.63;;;;;;;;;;5075021;28;20012;-63
2022/01/27 08:14:06;;;;;;;99.47;47.50;;;;;;;;;;5074900;28;20038;-63
2022/01/27 08:16:33;;;;;;;108.50;55.17;;;;;;;;;;5074744;28;20342;-63
2022/01/27 08:18:59;;;;;;;112.53;54.65;;;;;;;;;;5075097;28;20016;-62
2022/01/27 08:21:25;;;;;;;105.10;51.90;;;;;;;;;;5074479;28;20062;-61
2022/01/27 08:23:53;;;;;;;109.65;56.80;;;;;;;;;;5074940;28;20023;-52
2022/01/27 08:26:31;;;;;;;110.03;56.90;;;;;;;;;;5074902;28;20012;-53
2022/01/27 08:29:22;;;;;;;110.25;57.75;;;;;;;;;;5072108;28;20058;-58
2022/01/27 08:34:28;;;;;;;134.82;67.15;;;;;;;;;;5074576;28;20021;-55
2022/01/27 08:36:54;;;;;;;123.00;61.80;;;;;;;;;;5072884;28;20483;-54
2022/01/27 08:39:20;;;;;;;124.00;58.55;;;;;;;;;;5074332;28;20032;-52
2022/01/27 08:41:47;;;;;;;93.78;43.97;;;;;;;;;;5074117;28;20460;-56
2022/01/27 08:44:13;;;;;;;79.85;38.53;;;;;;;;;;5074082;28;20051;-54
2022/01/27 08:46:39;;;;;;;90.78;44.60;;;;;;;;;;5073790;28;20474;-56
2022/01/27 08:49:06;;;;;;;77.70;37.50;;;;;;;;;;5073608;28;20346;-59
2022/01/27 08:51:32;;;;;;;84.72;40.70;;;;;;;;;;5074208;28;20525;-55
2022/01/27 08:53:58;;;;;;;88.93;44.00;;;;;;;;;;5074411;28;20012;-53
2022/01/27 08:56:24;;;;;;;86.38;43.25;;;;;;;;;;5074253;28;20028;-54
2022/01/27 08:58:51;;;;;;;84.50;42.38;;;;;;;;;;5073639;28;20036;-52
2022/01/27 09:01:17;;;;;;;87.43;44.33;;;;;;;;;;5073664;28;20105;-49
2022/01/27 09:03:45;;;;;;;78.32;38.28;;;;;;;;;;5074180;28;20352;-55
2022/01/27 09:06:11;;;;;;;71.47;36.42;;;;;;;;;;5071586;28;20020;-59
2022/01/27 09:08:37;;;;;;;73.30;37.50;;;;;;;;;;5073802;28;20363;-55
2022/01/27 09:11:04;;;;;;;64.22;33.50;;;;;;;;;;5073695;28;20031;-52
2022/01/27 09:13:30;;;;;;;64.13;34.53;;;;;;;;;;5073755;28;20471;-56
2022/01/27 09:15:59;;;;;;;67.53;33.60;;;;;;;;;;5073589;28;20027;-58
2022/01/27 09:18:25;;;;;;;54.88;28.90;;;;;;;;;;5073647;28;20023;-57
2022/01/27 09:20:51;;;;;;;62.67;31.33;;;;;;;;;;5072561;28;20032;-56
2022/01/27 09:23:18;;;;;;;60.08;32.85;;;;;;;;;;5073268;28;20020;-54
2022/01/27 09:25:47;;;;;;;59.55;32.03;;;;;;;;;;5073493;28;20029;-51
2022/01/27 09:28:15;;;;;;;60.58;31.73;;;;;;;;;;5073600;28;20094;-55
2022/01/27 09:30:42;;;;;;;62.38;31.55;;;;;;;;;;5073868;28;20032;-57
2022/01/27 09:33:08;;;;;;;51.15;28.02;;;;;;;;;;5074195;28;20012;-54
2022/01/27 09:35:34;;;;;;;50.05;27.00;;;;;;;;;;5074055;28;20021;-56
2022/01/27 09:38:01;;;;;;;46.05;24.85;;;;;;;;;;5073389;28;20393;-49
2022/01/27 09:40:28;;;;;;;52.22;27.00;;;;;;;;;;5073707;28;20424;-55
2022/01/27 09:42:55;;;;;;;53.00;29.13;;;;;;;;;;5073501;28;20020;-52
2022/01/27 09:45:23;;;;;;;51.70;26.58;;;;;;;;;;5072866;28;20046;-56
2022/01/27 09:48:05;;;;;;;48.22;25.10;;;;;;;;;;5073249;28;20020;-55
2022/01/27 09:50:47;;;;;;;57.33;28.52;;;;;;;;;;5071705;28;20028;-59
2022/01/27 09:53:13;;;;;;;54.58;28.58;;;;;;;;;;5071552;28;20017;-55
2022/01/27 09:55:39;;;;;;;49.78;26.63;;;;;;;;;;5073098;28;20024;-55
2022/01/27 09:58:06;;;;;;;55.20;30.40;;;;;;;;;;5072746;28;20042;-56
2022/01/27 10:00:33;;;;;;;47.53;26.27;;;;;;;;;;5072969;28;20020;-52
2022/01/27 10:03:09;;;;;;;45.15;24.60;;;;;;;;;;5073568;28;20461;-54
2022/01/27 10:05:36;;;;;;;42.60;23.42;;;;;;;;;;5072942;28;20012;-51
2022/01/27 10:08:04;;;;;;;41.25;24.63;;;;;;;;;;5073124;28;20062;-54
2022/01/27 10:10:34;;;;;;;44.83;25.13;;;;;;;;;;5073253;28;20070;-51
2022/01/27 10:13:03;;;;;;;55.88;33.67;;;;;;;;;;5072927;28;20024;-52
2022/01/27 10:15:29;;;;;;;51.75;30.67;;;;;;;;;;5072889;28;20021;-58
2022/01/27 10:18:11;;;;;;;85.53;50.05;;;;;;;;;;5072748;28;20079;-54
2022/01/27 10:20:37;;;;;;;;;;;;;;;;;;5072060;28;20406;-54
2022/01/27 10:23:10;;;;;;;40.97;19.80;;;;;;;;;;5073044;28;19909;-52
2022/01/27 10:25:46;;;;;;;60.75;33.00;;;;;;;;;;5072958;28;20353;-53
2022/01/27 10:28:46;;;;;;;38.47;19.15;;;;;;;;;;5070792;28;20450;-59
2022/01/27 10:31:13;;;;;;;39.33;21.05;;;;;;;;;;5071839;28;20119;-59
2022/01/27 10:33:58;;;;;;;36.38;20.83;;;;;;;;;;5076466;28;20015;-53
2022/01/27 10:36:26;;;;;;;35.47;22.20;;;;;;;;;;5076788;28;20500;-56
2022/01/27 10:38:53;;;;;;;40.92;20.25;;;;;;;;;;5076954;28;20012;-57
2022/01/27 10:41:21;;;;;;;47.85;26.30;;;;;;;;;;5076638;28;20043;-52
2022/01/27 10:43:47;;;;;;;42.40;25.05;;;;;;;;;;5076583;28;20453;-56
2022/01/27 10:46:27;;;;;;;44.83;23.55;;;;;;;;;;5076895;28;20013;-60
2022/01/27 10:49:23;;;;;;;73.68;42.97;;;;;;;;;;5074922;28;20138;-51
2022/01/27 10:51:50;;;;;;;62.25;35.55;;;;;;;;;;5075963;28;20051;-58
2022/01/27 10:54:32;;;;;;;72.38;38.92;;;;;;;;;;5077033;28;20405;-53
2022/01/27 10:57:01;;;;;;;57.88;33.63;;;;;;;;;;5077015;28;20027;-50
2022/01/27 10:59:32;;;;;;;55.55;31.20;;;;;;;;;;5077241;28;20041;-57
2022/01/27 11:01:58;;;;;;;66.18;37.88;;;;;;;;;;5076386;28;20020;-53
2022/01/27 11:04:33;;;;;;;70.90;39.75;;;;;;;;;;5076691;28;20025;-51
2022/01/27 11:07:01;;;;;;;58.53;31.75;;;;;;;;;;5076838;28;20078;-52
2022/01/27 11:09:27;;;;;;;46.42;24.48;;;;;;;;;;5076449;28;20051;-54
2022/01/27 11:11:56;;;;;;;41.70;24.02;;;;;;;;;;5076167;28;20407;-54
2022/01/27 11:14:25;;;;;;;54.38;30.05;;;;;;;;;;5075992;28;20369;-53
2022/01/27 11:16:55;;;;;;;52.78;31.85;;;;;;;;;;5075534;28;20441;-50
2022/01/27 11:19:40;;;;;;;61.30;35.57;;;;;;;;;;5076156;28;20209;-53
2022/01/27 11:22:46;;;;;;;61.95;33.28;;;;;;;;;;5075922;28;20302;-53
2022/01/27 11:27:32;;;;;;;58.20;31.52;;;;;;;;;;5075162;28;20473;-55
2022/01/27 11:30:04;;;;;;;46.70;27.98;;;;;;;;;;5074881;28;20365;-57
2022/01/27 11:32:39;;;;;;;67.32;38.78;;;;;;;;;;5073247;28;20513;-57
2022/01/27 11:35:25;;;;;;;49.00;29.35;;;;;;;;;;5071261;28;20368;-56
2022/01/27 11:37:52;;;;;;;54.03;32.08;;;;;;;;;;5073039;28;20009;-57
2022/01/27 11:40:20;;;;;;;57.17;33.13;;;;;;;;;;5074871;28;20056;-55
2022/01/27 11:42:55;;;;;;;51.47;29.85;;;;;;;;;;5074380;28;20031;-57
2022/01/27 11:45:21;;;;;;;59.60;35.15;;;;;;;;;;5075879;28;20054;-54
2022/01/27 11:48:12;;;;;;;54.17;36.42;;;;;;;;;;5075435;28;20020;-57
2022/01/27 11:50:47;;;;;;;46.55;29.58;;;;;;;;;;5075101;28;20017;-57
2022/01/27 11:53:27;;;;;;;337.23;128.73;;;;;;;;;;5074790;28;20047;-55
2022/01/27 11:55:53;;;;;;;77.57;43.88;;;;;;;;;;5072013;28;20022;-56
2022/01/27 11:58:21;;;;;;;40.70;25.08;;;;;;;;;;5074511;28;20062;-58
2022/01/27 12:01:10;;;;;;;52.05;31.67;;;;;;;;;;5075231;28;20020;-55
2022/01/27 12:03:37;;;;;;;54.97;33.42;;;;;;;;;;5075413;28;20017;-57
2022/01/27 12:06:17;;;;;;;42.00;24.95;;;;;;;;;;5075016;28;20016;-54
2022/01/27 12:08:43;;;;;;;42.17;27.67;;;;;;;;;;5074908;28;20020;-56
2022/01/27 12:11:11;;;;;;;53.67;29.27;;;;;;;;;;5074026;28;20074;-54
2022/01/27 12:13:43;;;;;;;33.15;21.38;;;;;;;;;;5074280;28;20044;-55
2022/01/27 12:19:18;;;;;;;18.73;11.38;;;;;;;;;;5074415;28;20025;-55
2022/01/27 12:21:55;;;;;;;43.67;25.05;;;;;;;;;;5049690;28;20385;-55
2022/01/27 12:24:27;;;;;;;25.83;16.08;;;;;;;;;;5072353;28;20146;-54
2022/01/27 12:26:54;;;;;;;28.38;16.48;;;;;;;;;;5071280;28;20396;-51
2022/01/27 12:29:30;;;;;;;29.40;16.13;;;;;;;;;;5074331;28;20016;-52
2022/01/27 12:31:58;;;;;;;17.60;11.63;;;;;;;;;;5071336;28;20017;-59
2022/01/27 12:34:24;;;;;;;20.55;11.95;;;;;;;;;;5074015;28;20013;-53
2022/01/27 12:36:57;;;;;;;22.30;12.98;;;;;;;;;;5073876;28;20103;-51
2022/01/27 12:39:24;;;;;;;26.33;16.05;;;;;;;;;;5073183;28;20051;-54
2022/01/27 12:41:53;;;;;;;27.73;16.20;;;;;;;;;;5073788;28;20450;-54
2022/01/27 12:44:19;;;;;;;25.15;14.43;;;;;;;;;;5073670;28;20008;-57
2022/01/27 12:47:24;;;;;;;24.25;14.35;;;;;;;;;;5073331;28;20063;-56
2022/01/27 12:50:01;;;;;;;24.00;13.38;;;;;;;;;;5011362;28;20022;-54
2022/01/27 12:52:30;;;;;;;16.90;9.85;;;;;;;;;;5011658;28;20026;-53
2022/01/27 12:54:56;;;;;;;16.33;8.90;;;;;;;;;;5047260;28;20085;-56
2022/01/27 12:57:26;;;;;;;22.50;13.15;;;;;;;;;;5073880;28;20460;-54
2022/01/27 12:59:53;;;;;;;25.52;14.77;;;;;;;;;;5074040;28;20028;-56
2022/01/27 13:02:20;;;;;;;27.95;16.75;;;;;;;;;;5074512;28;20025;-59
2022/01/27 13:04:47;;;;;;;22.17;13.63;;;;;;;;;;5074954;28;20052;-54
2022/01/27 13:07:13;;;;;;;21.25;12.45;;;;;;;;;;5074005;28;20062;-56
2022/01/27 13:09:40;;;;;;;22.35;13.85;;;;;;;;;;5074240;28;20039;-57
2022/01/27 13:12:19;;;;;;;25.48;14.68;;;;;;;;;;5074155;28;20012;-57
2022/01/27 13:15:05;;;;;;;40.35;23.65;;;;;;;;;;5074235;28;20019;-58
2022/01/27 13:17:36;;;;;;;81.25;35.90;;;;;;;;;;5074041;28;20099;-58
2022/01/27 13:20:16;;;;;;;134.82;46.95;;;;;;;;;;5073110;28;20033;-54
2022/01/27 13:22:46;;;;;;;144.20;49.83;;;;;;;;;;5072936;28;20028;-56
2022/01/27 13:25:12;;;;;;;39.17;20.98;;;;;;;;;;5073262;28;20054;-56
2022/01/27 13:27:38;;;;;;;27.90;17.60;;;;;;;;;;5073435;28;20029;-57
2022/01/27 13:30:04;;;;;;;35.35;20.63;;;;;;;;;;5073313;28;20029;-58
2022/01/27 13:32:31;;;;;;;42.95;24.83;;;;;;;;;;5073585;28;20017;-59
2022/01/27 13:34:57;;;;;;;37.88;21.35;;;;;;;;;;5072809;28;20457;-60
2022/01/27 13:37:30;;;;;;;42.30;26.17;;;;;;;;;;5072133;28;20023;-60
2022/01/27 13:42:23;;;;;;;46.05;29.33;;;;;;;;;;5073500;28;20024;-56
2022/01/27 13:45:00;;;;;;;33.55;21.98;;;;;;;;;;5072830;28;20103;-55
2022/01/27 13:47:32;;;;;;;37.95;22.38;;;;;;;;;;5072364;28;20013;-57
2022/01/27 13:50:11;;;;;;;39.22;22.13;;;;;;;;;;5073252;28;20020;-56
2022/01/27 13:52:41;;;;;;;33.35;18.30;;;;;;;;;;5073030;28;20020;-55
2022/01/27 13:55:09;;;;;;;43.45;22.90;;;;;;;;;;5073234;28;20021;-55
2022/01/27 13:57:49;;;;;;;34.53;17.92;;;;;;;;;;5073304;28;20044;-58
2022/01/27 14:00:20;;;;;;;35.13;17.42;;;;;;;;;;5073043;28;20032;-55
2022/01/27 14:02:48;;;;;;;34.33;21.77;;;;;;;;;;5072721;28;20016;-57
2022/01/27 14:05:15;;;;;;;32.20;18.65;;;;;;;;;;5072247;28;20017;-57
2022/01/27 14:07:57;;;;;;;34.85;20.92;;;;;;;;;;5072744;28;20020;-57
2022/01/27 14:10:26;;;;;;;38.25;22.88;;;;;;;;;;5073463;28;20032;-58
2022/01/27 14:12:58;;;;;;;43.60;24.92;;;;;;;;;;5073357;28;20445;-59
2022/01/27 14:15:27;;;;;;;42.28;24.42;;;;;;;;;;5074034;28;20032;-57
2022/01/27 14:18:04;;;;;;;37.15;22.10;;;;;;;;;;5072808;28;20020;-53
2022/01/27 14:20:30;;;;;;;35.38;19.63;;;;;;;;;;5072495;28;20483;-56
2022/01/27 14:23:12;;;;;;;39.65;20.95;;;;;;;;;;5073232;28;20016;-55
2022/01/27 14:25:45;;;;;;;34.45;17.08;;;;;;;;;;5071124;28;20083;-51
2022/01/27 14:28:11;;;;;;;30.42;16.95;;;;;;;;;;5070671;28;20016;-57
2022/01/27 14:30:38;;;;;;;36.40;19.10;;;;;;;;;;5073096;28;20491;-57
2022/01/27 14:33:04;;;;;;;28.30;16.17;;;;;;;;;;5072456;28;20420;-52
2022/01/27 14:35:31;;;;;;;24.52;14.07;;;;;;;;;;5073075;28;20485;-54
2022/01/27 14:37:58;;;;;;;24.73;13.57;;;;;;;;;;5072764;28;20017;-52
2022/01/27 14:40:25;;;;;;;30.00;14.75;;;;;;;;;;5072623;28;20037;-55
2022/01/27 14:42:52;;;;;;;30.02;13.40;;;;;;;;;;5070014;28;20031;-54
2022/01/27 14:45:19;;;;;;;28.45;13.90;;;;;;;;;;5071982;28;20020;-55
2022/01/27 14:47:46;;;;;;;27.52;13.88;;;;;;;;;;5072346;28;20021;-54
2022/01/27 14:50:13;;;;;;;27.42;14.00;;;;;;;;;;5072845;28;20492;-58
2022/01/27 14:52:42;;;;;;;28.95;13.27;;;;;;;;;;5072884;28;20028;-58
2022/01/27 14:55:09;;;;;;;33.10;15.88;;;;;;;;;;5073234;28;20130;-56
2022/01/27 14:57:35;;;;;;;32.70;16.88;;;;;;;;;;5071733;28;20045;-54
2022/01/27 15:00:02;;;;;;;93.72;49.60;;;;;;;;;;5072840;28;20067;-54
2022/01/27 15:02:28;;;;;;;90.80;46.22;;;;;;;;;;5073227;28;20017;-52
2022/01/27 15:04:54;;;;;;;75.28;38.97;;;;;;;;;;5072890;28;20035;-55
2022/01/27 15:07:20;;;;;;;150.70;58.83;;;;;;;;;;5072589;28;20023;-55
2022/01/27 15:09:46;;;;;;;266.83;118.68;;;;;;;;;;5072792;28;20067;-53
2022/01/27 15:12:15;;;;;;;146.70;79.85;;;;;;;;;;5072800;28;20016;-59
2022/01/27 15:20:12;;;;;;;132.38;67.47;;;;;;;;;;5072997;28;20059;-51
2022/01/27 15:22:38;;;;;;;166.23;79.20;;;;;;;;;;5074603;28;20052;-50